sensor_id;sensor_type;location;lat;lon;timestamp;temperature;humidity
23156;DHT22;11746;50.876;4.246;2022-09-09T00:01:43;16.40;99.90
23156;DHT22;11746;50.876;4.246;2022-09-09T00:04:26;16.30;99.90
23156;DHT22;11746;50.876;4.246;2022-09-09T00:09:49;16.40;99.90
23156;DHT22;11746;50.876;4.246;2022-09-09T00:15:19;16.30;99.90
23156;DHT22;11746;50.876;4.246;2022-09-09T00:18:07;16.20;99.90
23156;DHT22;11746;50.876;4.246;2022-09-09T00:20:49;16.20;99.90
23156;DHT22;11746;50.876;4.246;2022-09-09T00:23:24;16.30;99.90
23156;DHT22;11746;50.876;4.246;2022-09-09T00:26:02;16.30;99.90
23156;DHT22;11746;50.876;4.246;2022-09-09T00:28:33;16.30;99.90
23156;DHT22;11746;50.876;4.246;2022-09-09T00:31:28;16.20;99.90
23156;DHT22;11746;50.876;4.246;2022-09-09T00:34:03;16.20;99.90
23156;DHT22;11746;50.876;4.246;2022-09-09T00:36:32;16.30;99.90
23156;DHT22;11746;50.876;4.246;2022-09-09T00:39:01;16.20;99.90
23156;DHT22;11746;50.876;4.246;2022-09-09T00:41:51;16.40;99.90
23156;DHT22;11746;50.876;4.246;2022-09-09T00:44:34;16.20;99.90
23156;DHT22;11746;50.876;4.246;2022-09-09T00:53:05;16.20;99.90
23156;DHT22;11746;50.876;4.246;2022-09-09T00:55:46;16.40;99.90
23156;DHT22;11746;50.876;4.246;2022-09-09T00:58:14;16.30;99.90
23156;DHT22;11746;50.876;4.246;2022-09-09T01:01:32;16.50;99.90
23156;DHT22;11746;50.876;4.246;2022-09-09T01:03:56;16.50;99.90
23156;DHT22;11746;50.876;4.246;2022-09-09T01:06:31;16.40;99.90
23156;DHT22;11746;50.876;4.246;2022-09-09T01:12:17;16.50;99.90
23156;DHT22;11746;50.876;4.246;2022-09-09T01:14:48;16.40;99.90
23156;DHT22;11746;50.876;4.246;2022-09-09T01:23:37;16.60;99.90
23156;DHT22;11746;50.876;4.246;2022-09-09T01:26:19;16.50;99.90
23156;DHT22;11746;50.876;4.246;2022-09-09T01:28:49;16.50;99.90
23156;DHT22;11746;50.876;4.246;2022-09-09T01:32:35;16.30;99.90
23156;DHT22;11746;50.876;4.246;2022-09-09T01:34:33;16.30;99.90
23156;DHT22;11746;50.876;4.246;2022-09-09T01:37:06;16.30;99.90
23156;DHT22;11746;50.876;4.246;2022-09-09T01:39:35;16.40;99.90
23156;DHT22;11746;50.876;4.246;2022-09-09T01:42:03;16.40;99.90
23156;DHT22;11746;50.876;4.246;2022-09-09T01:44:31;16.30;99.90
23156;DHT22;11746;50.876;4.246;2022-09-09T01:46:58;16.30;99.90
23156;DHT22;11746;50.876;4.246;2022-09-09T01:49:24;16.30;99.90
23156;DHT22;11746;50.876;4.246;2022-09-09T01:51:53;16.50;99.90
23156;DHT22;11746;50.876;4.246;2022-09-09T01:54:23;16.40;99.90
23156;DHT22;11746;50.876;4.246;2022-09-09T01:59:29;16.30;99.90
23156;DHT22;11746;50.876;4.246;2022-09-09T02:02:09;16.30;99.90
23156;DHT22;11746;50.876;4.246;2022-09-09T02:04:41;16.30;99.90
23156;DHT22;11746;50.876;4.246;2022-09-09T02:07:29;16.30;99.90
23156;DHT22;11746;50.876;4.246;2022-09-09T02:10:15;16.40;99.90
23156;DHT22;11746;50.876;4.246;2022-09-09T02:12:47;16.40;99.90
23156;DHT22;11746;50.876;4.246;2022-09-09T02:15:38;16.40;99.90
23156;DHT22;11746;50.876;4.246;2022-09-09T02:18:08;16.30;99.90
23156;DHT22;11746;50.876;4.246;2022-09-09T02:20:38;16.40;99.90
23156;DHT22;11746;50.876;4.246;2022-09-09T02:23:07;16.30;99.90
23156;DHT22;11746;50.876;4.246;2022-09-09T02:25:36;16.30;99.90
23156;DHT22;11746;50.876;4.246;2022-09-09T02:28:06;16.40;99.90
23156;DHT22;11746;50.876;4.246;2022-09-09T02:30:35;16.30;99.90
23156;DHT22;11746;50.876;4.246;2022-09-09T02:33:05;16.30;99.90
23156;DHT22;11746;50.876;4.246;2022-09-09T02:35:34;16.30;99.90
23156;DHT22;11746;50.876;4.246;2022-09-09T02:38:07;16.50;99.90
23156;DHT22;11746;50.876;4.246;2022-09-09T02:40:35;16.40;99.90
23156;DHT22;11746;50.876;4.246;2022-09-09T02:43:02;16.30;99.90
23156;DHT22;11746;50.876;4.246;2022-09-09T02:45:38;16.30;99.90
23156;DHT22;11746;50.876;4.246;2022-09-09T02:48:33;16.30;99.90
23156;DHT22;11746;50.876;4.246;2022-09-09T02:51:48;16.20;99.90
23156;DHT22;11746;50.876;4.246;2022-09-09T02:56:54;16.10;99.90
23156;DHT22;11746;50.876;4.246;2022-09-09T02:59:22;16.10;99.90
23156;DHT22;11746;50.876;4.246;2022-09-09T03:01:50;16.20;99.90
23156;DHT22;11746;50.876;4.246;2022-09-09T03:04:17;16.20;99.90
23156;DHT22;11746;50.876;4.246;2022-09-09T03:06:43;16.20;99.90
23156;DHT22;11746;50.876;4.246;2022-09-09T03:09:10;16.20;99.90
23156;DHT22;11746;50.876;4.246;2022-09-09T03:11:36;16.10;99.90
23156;DHT22;11746;50.876;4.246;2022-09-09T03:14:04;16.20;99.90
23156;DHT22;11746;50.876;4.246;2022-09-09T03:16:31;16.30;99.90
23156;DHT22;11746;50.876;4.246;2022-09-09T03:18:58;16.20;99.90
23156;DHT22;11746;50.876;4.246;2022-09-09T03:21:24;16.00;99.90
23156;DHT22;11746;50.876;4.246;2022-09-09T03:23:50;16.10;99.90
23156;DHT22;11746;50.876;4.246;2022-09-09T03:26:17;16.10;99.90
23156;DHT22;11746;50.876;4.246;2022-09-09T03:28:44;16.20;99.90
23156;DHT22;11746;50.876;4.246;2022-09-09T03:31:10;16.30;99.90
23156;DHT22;11746;50.876;4.246;2022-09-09T03:33:37;16.30;99.90
23156;DHT22;11746;50.876;4.246;2022-09-09T03:36:04;16.20;99.90
23156;DHT22;11746;50.876;4.246;2022-09-09T03:38:31;16.20;99.90
23156;DHT22;11746;50.876;4.246;2022-09-09T03:41:00;16.10;99.90
23156;DHT22;11746;50.876;4.246;2022-09-09T03:43:27;16.10;99.90
23156;DHT22;11746;50.876;4.246;2022-09-09T03:45:54;16.30;99.90
23156;DHT22;11746;50.876;4.246;2022-09-09T03:48:23;16.30;99.90
23156;DHT22;11746;50.876;4.246;2022-09-09T03:50:51;16.10;99.90
23156;DHT22;11746;50.876;4.246;2022-09-09T03:53:19;16.20;99.90
23156;DHT22;11746;50.876;4.246;2022-09-09T03:55:47;16.30;99.90
23156;DHT22;11746;50.876;4.246;2022-09-09T03:58:14;16.20;99.90
23156;DHT22;11746;50.876;4.246;2022-09-09T04:00:42;16.00;99.90
23156;DHT22;11746;50.876;4.246;2022-09-09T04:03:09;16.10;99.90
23156;DHT22;11746;50.876;4.246;2022-09-09T04:05:36;16.10;99.90
23156;DHT22;11746;50.876;4.246;2022-09-09T04:08:06;16.00;99.90
23156;DHT22;11746;50.876;4.246;2022-09-09T04:10:33;16.10;99.90
23156;DHT22;11746;50.876;4.246;2022-09-09T04:12:59;16.20;99.90
23156;DHT22;11746;50.876;4.246;2022-09-09T04:15:25;16.20;99.90
23156;DHT22;11746;50.876;4.246;2022-09-09T04:17:51;16.20;99.90
23156;DHT22;11746;50.876;4.246;2022-09-09T04:20:17;16.10;99.90
23156;DHT22;11746;50.876;4.246;2022-09-09T04:22:43;16.20;99.90
23156;DHT22;11746;50.876;4.246;2022-09-09T04:25:09;16.00;99.90
23156;DHT22;11746;50.876;4.246;2022-09-09T04:27:35;16.10;99.90
23156;DHT22;11746;50.876;4.246;2022-09-09T04:30:01;15.90;99.90
23156;DHT22;11746;50.876;4.246;2022-09-09T04:32:28;16.00;99.90
23156;DHT22;11746;50.876;4.246;2022-09-09T04:34:54;16.00;99.90
23156;DHT22;11746;50.876;4.246;2022-09-09T04:37:20;16.00;99.90
23156;DHT22;11746;50.876;4.246;2022-09-09T04:39:46;16.10;99.90
23156;DHT22;11746;50.876;4.246;2022-09-09T04:42:12;16.10;99.90
23156;DHT22;11746;50.876;4.246;2022-09-09T04:44:39;16.00;99.90
23156;DHT22;11746;50.876;4.246;2022-09-09T04:47:06;16.00;99.90
23156;DHT22;11746;50.876;4.246;2022-09-09T04:49:32;15.90;99.90
23156;DHT22;11746;50.876;4.246;2022-09-09T04:51:59;16.00;99.90
23156;DHT22;11746;50.876;4.246;2022-09-09T04:54:25;16.00;99.90
23156;DHT22;11746;50.876;4.246;2022-09-09T04:56:51;15.80;99.90
23156;DHT22;11746;50.876;4.246;2022-09-09T04:59:18;15.90;99.90
23156;DHT22;11746;50.876;4.246;2022-09-09T05:01:44;15.90;99.90
23156;DHT22;11746;50.876;4.246;2022-09-09T05:04:11;15.90;99.90
23156;DHT22;11746;50.876;4.246;2022-09-09T05:06:36;15.80;99.90
23156;DHT22;11746;50.876;4.246;2022-09-09T05:09:03;15.70;99.90
23156;DHT22;11746;50.876;4.246;2022-09-09T05:11:31;15.80;99.90
23156;DHT22;11746;50.876;4.246;2022-09-09T05:13:58;15.80;99.90
23156;DHT22;11746;50.876;4.246;2022-09-09T05:16:24;15.80;99.90
23156;DHT22;11746;50.876;4.246;2022-09-09T05:18:51;15.90;99.90
23156;DHT22;11746;50.876;4.246;2022-09-09T05:21:18;16.00;99.90
23156;DHT22;11746;50.876;4.246;2022-09-09T05:23:46;16.00;99.90
23156;DHT22;11746;50.876;4.246;2022-09-09T05:26:19;16.00;99.90
23156;DHT22;11746;50.876;4.246;2022-09-09T05:28:46;16.00;99.90
23156;DHT22;11746;50.876;4.246;2022-09-09T05:31:14;16.10;99.90
23156;DHT22;11746;50.876;4.246;2022-09-09T05:33:41;16.00;99.90
23156;DHT22;11746;50.876;4.246;2022-09-09T05:36:19;16.00;99.90
23156;DHT22;11746;50.876;4.246;2022-09-09T05:38:45;16.10;99.90
23156;DHT22;11746;50.876;4.246;2022-09-09T05:41:13;16.10;99.90
23156;DHT22;11746;50.876;4.246;2022-09-09T05:43:44;16.20;99.90
23156;DHT22;11746;50.876;4.246;2022-09-09T05:46:13;16.00;99.90
23156;DHT22;11746;50.876;4.246;2022-09-09T05:48:43;16.00;99.90
23156;DHT22;11746;50.876;4.246;2022-09-09T05:51:22;16.00;99.90
23156;DHT22;11746;50.876;4.246;2022-09-09T05:53:50;16.10;99.90
23156;DHT22;11746;50.876;4.246;2022-09-09T05:56:21;15.90;99.90
23156;DHT22;11746;50.876;4.246;2022-09-09T05:58:49;16.00;99.90
23156;DHT22;11746;50.876;4.246;2022-09-09T06:01:18;16.10;99.90
23156;DHT22;11746;50.876;4.246;2022-09-09T06:03:46;16.20;99.90
23156;DHT22;11746;50.876;4.246;2022-09-09T06:06:18;16.30;99.90
23156;DHT22;11746;50.876;4.246;2022-09-09T06:08:46;16.30;99.90
23156;DHT22;11746;50.876;4.246;2022-09-09T06:11:16;16.30;99.90
23156;DHT22;11746;50.876;4.246;2022-09-09T06:13:43;16.30;99.90
23156;DHT22;11746;50.876;4.246;2022-09-09T06:16:10;16.30;99.90
23156;DHT22;11746;50.876;4.246;2022-09-09T06:18:37;16.40;99.90
23156;DHT22;11746;50.876;4.246;2022-09-09T06:21:06;16.50;99.90
23156;DHT22;11746;50.876;4.246;2022-09-09T06:23:33;16.50;99.90
23156;DHT22;11746;50.876;4.246;2022-09-09T06:26:09;16.50;99.90
23156;DHT22;11746;50.876;4.246;2022-09-09T06:28:36;16.50;99.90
23156;DHT22;11746;50.876;4.246;2022-09-09T06:31:08;16.30;99.90
23156;DHT22;11746;50.876;4.246;2022-09-09T06:33:36;16.40;99.90
23156;DHT22;11746;50.876;4.246;2022-09-09T06:36:05;16.40;99.90
23156;DHT22;11746;50.876;4.246;2022-09-09T06:38:31;16.40;99.90
23156;DHT22;11746;50.876;4.246;2022-09-09T06:40:59;16.50;99.90
23156;DHT22;11746;50.876;4.246;2022-09-09T06:43:26;16.50;99.90
23156;DHT22;11746;50.876;4.246;2022-09-09T06:46:06;16.50;99.90
23156;DHT22;11746;50.876;4.246;2022-09-09T06:48:33;16.50;99.90
23156;DHT22;11746;50.876;4.246;2022-09-09T06:51:38;16.50;99.90
23156;DHT22;11746;50.876;4.246;2022-09-09T06:53:59;16.60;99.90
23156;DHT22;11746;50.876;4.246;2022-09-09T06:58:55;16.70;99.90
23156;DHT22;11746;50.876;4.246;2022-09-09T07:01:27;16.80;99.90
23156;DHT22;11746;50.876;4.246;2022-09-09T07:03:55;16.80;99.90
23156;DHT22;11746;50.876;4.246;2022-09-09T07:06:45;16.70;99.90
23156;DHT22;11746;50.876;4.246;2022-09-09T07:09:13;16.60;99.90
23156;DHT22;11746;50.876;4.246;2022-09-09T07:11:43;16.60;99.90
23156;DHT22;11746;50.876;4.246;2022-09-09T07:14:09;16.80;99.90
23156;DHT22;11746;50.876;4.246;2022-09-09T07:16:43;16.70;99.90
23156;DHT22;11746;50.876;4.246;2022-09-09T07:19:11;16.80;99.90
23156;DHT22;11746;50.876;4.246;2022-09-09T07:21:37;16.90;99.90
23156;DHT22;11746;50.876;4.246;2022-09-09T07:24:04;16.70;99.90
23156;DHT22;11746;50.876;4.246;2022-09-09T07:26:33;16.60;99.90
23156;DHT22;11746;50.876;4.246;2022-09-09T07:29:03;16.60;99.90
23156;DHT22;11746;50.876;4.246;2022-09-09T07:31:34;16.60;99.90
23156;DHT22;11746;50.876;4.246;2022-09-09T07:34:01;16.50;99.90
23156;DHT22;11746;50.876;4.246;2022-09-09T07:36:32;16.70;99.90
23156;DHT22;11746;50.876;4.246;2022-09-09T07:39:10;16.70;99.90
23156;DHT22;11746;50.876;4.246;2022-09-09T07:41:40;16.80;99.90
23156;DHT22;11746;50.876;4.246;2022-09-09T07:44:15;16.70;99.90
23156;DHT22;11746;50.876;4.246;2022-09-09T07:46:42;16.50;99.90
23156;DHT22;11746;50.876;4.246;2022-09-09T07:49:09;16.50;99.90
23156;DHT22;11746;50.876;4.246;2022-09-09T07:51:38;16.50;99.90
23156;DHT22;11746;50.876;4.246;2022-09-09T07:54:08;16.60;99.90
23156;DHT22;11746;50.876;4.246;2022-09-09T07:56:35;16.80;99.90
23156;DHT22;11746;50.876;4.246;2022-09-09T07:59:02;16.80;99.90
23156;DHT22;11746;50.876;4.246;2022-09-09T08:01:38;16.80;99.90
23156;DHT22;11746;50.876;4.246;2022-09-09T08:04:10;16.90;99.90
23156;DHT22;11746;50.876;4.246;2022-09-09T08:06:45;17.00;99.90
23156;DHT22;11746;50.876;4.246;2022-09-09T08:09:12;17.00;99.90
23156;DHT22;11746;50.876;4.246;2022-09-09T08:11:39;17.10;99.90
23156;DHT22;11746;50.876;4.246;2022-09-09T08:14:07;17.20;99.90
23156;DHT22;11746;50.876;4.246;2022-09-09T08:16:37;17.10;99.90
23156;DHT22;11746;50.876;4.246;2022-09-09T08:19:04;16.90;99.90
23156;DHT22;11746;50.876;4.246;2022-09-09T08:21:32;16.80;99.90
23156;DHT22;11746;50.876;4.246;2022-09-09T08:24:00;16.80;99.90
23156;DHT22;11746;50.876;4.246;2022-09-09T08:26:31;16.90;99.90
23156;DHT22;11746;50.876;4.246;2022-09-09T08:28:59;17.00;99.90
23156;DHT22;11746;50.876;4.246;2022-09-09T08:31:35;17.10;99.90
23156;DHT22;11746;50.876;4.246;2022-09-09T08:34:03;17.20;99.90
23156;DHT22;11746;50.876;4.246;2022-09-09T08:36:32;17.00;99.90
23156;DHT22;11746;50.876;4.246;2022-09-09T08:39:02;16.90;99.90
23156;DHT22;11746;50.876;4.246;2022-09-09T08:41:57;16.80;99.90
23156;DHT22;11746;50.876;4.246;2022-09-09T08:47:04;17.00;99.90
23156;DHT22;11746;50.876;4.246;2022-09-09T08:49:56;16.90;99.90
23156;DHT22;11746;50.876;4.246;2022-09-09T08:52:29;16.70;99.90
23156;DHT22;11746;50.876;4.246;2022-09-09T08:55:03;16.80;99.90
23156;DHT22;11746;50.876;4.246;2022-09-09T08:57:30;16.90;99.90
23156;DHT22;11746;50.876;4.246;2022-09-09T08:59:57;16.90;99.90
23156;DHT22;11746;50.876;4.246;2022-09-09T09:03:14;16.90;99.90
23156;DHT22;11746;50.876;4.246;2022-09-09T09:05:23;17.00;99.90
23156;DHT22;11746;50.876;4.246;2022-09-09T09:07:59;16.90;99.90
23156;DHT22;11746;50.876;4.246;2022-09-09T09:10:48;16.80;99.90
23156;DHT22;11746;50.876;4.246;2022-09-09T09:13:43;16.80;99.90
23156;DHT22;11746;50.876;4.246;2022-09-09T09:16:19;16.80;99.90
23156;DHT22;11746;50.876;4.246;2022-09-09T09:18:48;16.90;99.90
23156;DHT22;11746;50.876;4.246;2022-09-09T09:24:02;16.90;99.90
23156;DHT22;11746;50.876;4.246;2022-09-09T09:26:34;17.00;99.90
23156;DHT22;11746;50.876;4.246;2022-09-09T09:29:09;17.10;99.90
23156;DHT22;11746;50.876;4.246;2022-09-09T09:31:36;17.00;99.90
23156;DHT22;11746;50.876;4.246;2022-09-09T09:34:03;16.80;99.90
23156;DHT22;11746;50.876;4.246;2022-09-09T09:36:41;16.80;99.90
23156;DHT22;11746;50.876;4.246;2022-09-09T09:39:08;16.80;99.90
23156;DHT22;11746;50.876;4.246;2022-09-09T09:41:42;16.80;99.90
23156;DHT22;11746;50.876;4.246;2022-09-09T09:44:25;16.90;99.90
23156;DHT22;11746;50.876;4.246;2022-09-09T09:46:53;16.80;99.90
23156;DHT22;11746;50.876;4.246;2022-09-09T09:49:31;17.00;99.90
23156;DHT22;11746;50.876;4.246;2022-09-09T09:52:02;17.10;99.90
23156;DHT22;11746;50.876;4.246;2022-09-09T09:54:38;17.10;99.90
23156;DHT22;11746;50.876;4.246;2022-09-09T09:57:12;17.00;99.90
23156;DHT22;11746;50.876;4.246;2022-09-09T09:59:39;17.00;99.90
23156;DHT22;11746;50.876;4.246;2022-09-09T10:04:45;16.90;99.90
23156;DHT22;11746;50.876;4.246;2022-09-09T10:07:22;16.90;99.90
23156;DHT22;11746;50.876;4.246;2022-09-09T10:09:53;17.00;99.90
23156;DHT22;11746;50.876;4.246;2022-09-09T10:12:36;17.10;99.90
23156;DHT22;11746;50.876;4.246;2022-09-09T10:15:07;17.20;99.90
23156;DHT22;11746;50.876;4.246;2022-09-09T10:17:53;17.30;99.90
23156;DHT22;11746;50.876;4.246;2022-09-09T10:23:27;17.50;99.90
23156;DHT22;11746;50.876;4.246;2022-09-09T10:31:43;17.60;99.90
23156;DHT22;11746;50.876;4.246;2022-09-09T10:40:32;18.20;99.90
23156;DHT22;11746;50.876;4.246;2022-09-09T10:43:20;18.30;99.90
23156;DHT22;11746;50.876;4.246;2022-09-09T10:46:06;18.40;99.90
23156;DHT22;11746;50.876;4.246;2022-09-09T10:52:15;18.50;99.90
23156;DHT22;11746;50.876;4.246;2022-09-09T10:55:02;18.70;99.90
23156;DHT22;11746;50.876;4.246;2022-09-09T11:00:06;18.50;99.90
23156;DHT22;11746;50.876;4.246;2022-09-09T11:02:34;18.40;99.90
23156;DHT22;11746;50.876;4.246;2022-09-09T11:05:19;18.30;99.90
23156;DHT22;11746;50.876;4.246;2022-09-09T11:11:09;18.30;99.90
23156;DHT22;11746;50.876;4.246;2022-09-09T11:16:29;18.50;99.90
23156;DHT22;11746;50.876;4.246;2022-09-09T11:21:49;18.50;99.90
23156;DHT22;11746;50.876;4.246;2022-09-09T11:24:42;18.50;99.90
23156;DHT22;11746;50.876;4.246;2022-09-09T11:27:13;18.40;99.90
23156;DHT22;11746;50.876;4.246;2022-09-09T11:35:07;18.40;99.90
23156;DHT22;11746;50.876;4.246;2022-09-09T11:40:26;18.30;99.90
23156;DHT22;11746;50.876;4.246;2022-09-09T11:43:12;18.30;99.90
23156;DHT22;11746;50.876;4.246;2022-09-09T11:45:41;18.30;99.90
23156;DHT22;11746;50.876;4.246;2022-09-09T11:48:33;18.20;99.90
23156;DHT22;11746;50.876;4.246;2022-09-09T11:51:06;18.30;99.90
23156;DHT22;11746;50.876;4.246;2022-09-09T11:53:52;18.30;99.90
23156;DHT22;11746;50.876;4.246;2022-09-09T12:01:45;18.30;99.90
23156;DHT22;11746;50.876;4.246;2022-09-09T12:04:35;18.50;99.90
23156;DHT22;11746;50.876;4.246;2022-09-09T12:10:41;18.30;99.90
23156;DHT22;11746;50.876;4.246;2022-09-09T12:12:50;18.20;99.90
23156;DHT22;11746;50.876;4.246;2022-09-09T12:15:26;18.30;99.90
23156;DHT22;11746;50.876;4.246;2022-09-09T12:17:56;18.40;99.90
23156;DHT22;11746;50.876;4.246;2022-09-09T12:20:33;18.30;99.90
23156;DHT22;11746;50.876;4.246;2022-09-09T12:23:06;18.30;99.90
23156;DHT22;11746;50.876;4.246;2022-09-09T12:25:54;18.40;99.90
23156;DHT22;11746;50.876;4.246;2022-09-09T12:28:46;18.50;99.90
23156;DHT22;11746;50.876;4.246;2022-09-09T12:31:25;18.60;99.90
23156;DHT22;11746;50.876;4.246;2022-09-09T12:34:14;18.60;99.90
23156;DHT22;11746;50.876;4.246;2022-09-09T12:36:42;18.60;99.90
23156;DHT22;11746;50.876;4.246;2022-09-09T12:39:23;18.50;99.90
23156;DHT22;11746;50.876;4.246;2022-09-09T12:41:53;18.60;99.90
23156;DHT22;11746;50.876;4.246;2022-09-09T12:44:24;18.80;99.90
23156;DHT22;11746;50.876;4.246;2022-09-09T12:46:51;18.80;99.90
23156;DHT22;11746;50.876;4.246;2022-09-09T12:49:37;18.80;99.90
23156;DHT22;11746;50.876;4.246;2022-09-09T12:52:14;19.10;99.90
23156;DHT22;11746;50.876;4.246;2022-09-09T12:54:44;19.00;99.90
23156;DHT22;11746;50.876;4.246;2022-09-09T12:57:16;19.10;99.90
23156;DHT22;11746;50.876;4.246;2022-09-09T12:59:43;19.10;99.90
23156;DHT22;11746;50.876;4.246;2022-09-09T13:02:26;19.30;99.90
23156;DHT22;11746;50.876;4.246;2022-09-09T13:04:53;19.30;99.90
23156;DHT22;11746;50.876;4.246;2022-09-09T13:07:21;19.50;99.90
23156;DHT22;11746;50.876;4.246;2022-09-09T13:09:48;19.60;99.90
23156;DHT22;11746;50.876;4.246;2022-09-09T13:12:22;19.50;99.90
23156;DHT22;11746;50.876;4.246;2022-09-09T13:14:51;19.50;99.90
23156;DHT22;11746;50.876;4.246;2022-09-09T13:17:24;19.50;99.90
23156;DHT22;11746;50.876;4.246;2022-09-09T13:19:51;19.50;99.90
23156;DHT22;11746;50.876;4.246;2022-09-09T13:25:06;19.60;99.90
23156;DHT22;11746;50.876;4.246;2022-09-09T13:27:33;19.70;99.90
23156;DHT22;11746;50.876;4.246;2022-09-09T13:30:00;19.80;99.90
23156;DHT22;11746;50.876;4.246;2022-09-09T13:32:27;20.00;99.90
23156;DHT22;11746;50.876;4.246;2022-09-09T13:34:55;20.00;99.90
23156;DHT22;11746;50.876;4.246;2022-09-09T13:39:54;20.50;99.90
23156;DHT22;11746;50.876;4.246;2022-09-09T13:42:28;20.70;99.90
23156;DHT22;11746;50.876;4.246;2022-09-09T13:44:55;21.00;99.90
23156;DHT22;11746;50.876;4.246;2022-09-09T13:47:34;21.00;99.90
23156;DHT22;11746;50.876;4.246;2022-09-09T13:50:20;20.80;99.90
23156;DHT22;11746;50.876;4.246;2022-09-09T13:52:50;20.60;99.90
23156;DHT22;11746;50.876;4.246;2022-09-09T13:55:22;20.30;99.90
23156;DHT22;11746;50.876;4.246;2022-09-09T13:57:55;20.20;99.90
23156;DHT22;11746;50.876;4.246;2022-09-09T14:00:22;20.30;99.90
23156;DHT22;11746;50.876;4.246;2022-09-09T14:02:48;20.20;99.90
23156;DHT22;11746;50.876;4.246;2022-09-09T14:05:15;20.30;99.90
23156;DHT22;11746;50.876;4.246;2022-09-09T14:07:43;20.50;99.90
23156;DHT22;11746;50.876;4.246;2022-09-09T14:10:09;20.40;99.90
23156;DHT22;11746;50.876;4.246;2022-09-09T14:12:36;20.30;99.90
23156;DHT22;11746;50.876;4.246;2022-09-09T14:15:04;19.90;99.90
23156;DHT22;11746;50.876;4.246;2022-09-09T14:17:29;20.00;99.90
23156;DHT22;11746;50.876;4.246;2022-09-09T14:19:57;20.10;99.90
23156;DHT22;11746;50.876;4.246;2022-09-09T14:22:25;20.40;99.90
23156;DHT22;11746;50.876;4.246;2022-09-09T14:24:51;20.40;99.90
23156;DHT22;11746;50.876;4.246;2022-09-09T14:27:19;20.50;99.90
23156;DHT22;11746;50.876;4.246;2022-09-09T14:29:46;20.60;99.90
23156;DHT22;11746;50.876;4.246;2022-09-09T14:32:12;21.00;99.90
23156;DHT22;11746;50.876;4.246;2022-09-09T14:34:38;21.20;99.90
23156;DHT22;11746;50.876;4.246;2022-09-09T14:37:04;21.40;99.90
23156;DHT22;11746;50.876;4.246;2022-09-09T14:39:32;21.70;99.90
23156;DHT22;11746;50.876;4.246;2022-09-09T14:42:00;22.00;99.90
23156;DHT22;11746;50.876;4.246;2022-09-09T14:44:28;22.60;99.90
23156;DHT22;11746;50.876;4.246;2022-09-09T14:46:54;23.00;99.90
23156;DHT22;11746;50.876;4.246;2022-09-09T14:49:20;22.90;99.90
23156;DHT22;11746;50.876;4.246;2022-09-09T14:51:47;23.40;99.90
23156;DHT22;11746;50.876;4.246;2022-09-09T14:54:15;24.00;99.90
23156;DHT22;11746;50.876;4.246;2022-09-09T14:56:42;23.70;99.90
23156;DHT22;11746;50.876;4.246;2022-09-09T14:59:07;23.10;99.90
23156;DHT22;11746;50.876;4.246;2022-09-09T15:01:35;22.50;99.90
23156;DHT22;11746;50.876;4.246;2022-09-09T15:04:03;22.00;99.90
23156;DHT22;11746;50.876;4.246;2022-09-09T15:06:34;21.40;99.90
23156;DHT22;11746;50.876;4.246;2022-09-09T15:09:01;21.10;99.90
23156;DHT22;11746;50.876;4.246;2022-09-09T15:11:29;21.20;99.90
23156;DHT22;11746;50.876;4.246;2022-09-09T15:13:57;21.40;99.90
23156;DHT22;11746;50.876;4.246;2022-09-09T15:16:27;21.80;99.90
23156;DHT22;11746;50.876;4.246;2022-09-09T15:18:56;22.20;99.90
23156;DHT22;11746;50.876;4.246;2022-09-09T15:21:26;22.40;99.90
23156;DHT22;11746;50.876;4.246;2022-09-09T15:23:53;21.90;99.90
23156;DHT22;11746;50.876;4.246;2022-09-09T15:26:19;21.40;99.90
23156;DHT22;11746;50.876;4.246;2022-09-09T15:28:46;21.10;99.90
23156;DHT22;11746;50.876;4.246;2022-09-09T15:31:18;20.90;99.90
23156;DHT22;11746;50.876;4.246;2022-09-09T15:33:52;21.10;99.90
23156;DHT22;11746;50.876;4.246;2022-09-09T15:36:21;21.70;99.90
23156;DHT22;11746;50.876;4.246;2022-09-09T15:38:48;22.70;99.90
23156;DHT22;11746;50.876;4.246;2022-09-09T15:41:15;23.10;99.90
23156;DHT22;11746;50.876;4.246;2022-09-09T15:43:46;23.20;99.90
23156;DHT22;11746;50.876;4.246;2022-09-09T15:46:30;22.10;99.90
23156;DHT22;11746;50.876;4.246;2022-09-09T15:49:02;21.60;99.90
23156;DHT22;11746;50.876;4.246;2022-09-09T15:51:29;21.50;99.90
23156;DHT22;11746;50.876;4.246;2022-09-09T15:53:59;21.30;99.90
23156;DHT22;11746;50.876;4.246;2022-09-09T15:56:27;21.10;99.90
23156;DHT22;11746;50.876;4.246;2022-09-09T15:58:58;20.80;99.90
23156;DHT22;11746;50.876;4.246;2022-09-09T16:01:27;20.60;99.90
23156;DHT22;11746;50.876;4.246;2022-09-09T16:03:54;20.40;99.90
23156;DHT22;11746;50.876;4.246;2022-09-09T16:06:22;20.40;99.90
23156;DHT22;11746;50.876;4.246;2022-09-09T16:08:52;20.30;99.90
23156;DHT22;11746;50.876;4.246;2022-09-09T16:11:29;20.20;99.90
23156;DHT22;11746;50.876;4.246;2022-09-09T16:13:55;20.20;99.90
23156;DHT22;11746;50.876;4.246;2022-09-09T16:16:24;20.10;99.90
23156;DHT22;11746;50.876;4.246;2022-09-09T16:18:54;19.90;99.90
23156;DHT22;11746;50.876;4.246;2022-09-09T16:21:27;19.60;99.90
23156;DHT22;11746;50.876;4.246;2022-09-09T16:23:58;19.60;99.90
23156;DHT22;11746;50.876;4.246;2022-09-09T16:26:29;19.70;99.90
23156;DHT22;11746;50.876;4.246;2022-09-09T16:28:55;19.80;99.90
23156;DHT22;11746;50.876;4.246;2022-09-09T16:31:23;19.70;99.90
23156;DHT22;11746;50.876;4.246;2022-09-09T16:33:51;19.80;99.90
23156;DHT22;11746;50.876;4.246;2022-09-09T16:36:19;19.90;99.90
23156;DHT22;11746;50.876;4.246;2022-09-09T16:38:46;19.80;99.90
23156;DHT22;11746;50.876;4.246;2022-09-09T16:41:13;19.80;99.90
23156;DHT22;11746;50.876;4.246;2022-09-09T16:43:40;19.80;99.90
23156;DHT22;11746;50.876;4.246;2022-09-09T16:46:18;19.70;99.90
23156;DHT22;11746;50.876;4.246;2022-09-09T16:48:46;19.70;99.90
23156;DHT22;11746;50.876;4.246;2022-09-09T16:51:30;19.70;99.90
23156;DHT22;11746;50.876;4.246;2022-09-09T16:53:59;19.80;99.90
23156;DHT22;11746;50.876;4.246;2022-09-09T16:56:27;19.90;99.90
23156;DHT22;11746;50.876;4.246;2022-09-09T16:58:56;19.80;99.90
23156;DHT22;11746;50.876;4.246;2022-09-09T17:01:23;19.70;99.90
23156;DHT22;11746;50.876;4.246;2022-09-09T17:03:54;19.60;99.90
23156;DHT22;11746;50.876;4.246;2022-09-09T17:06:21;19.60;99.90
23156;DHT22;11746;50.876;4.246;2022-09-09T17:08:47;19.60;99.90
23156;DHT22;11746;50.876;4.246;2022-09-09T17:11:18;19.50;99.90
23156;DHT22;11746;50.876;4.246;2022-09-09T17:13:47;19.60;99.90
23156;DHT22;11746;50.876;4.246;2022-09-09T17:16:15;19.60;99.90
23156;DHT22;11746;50.876;4.246;2022-09-09T17:18:41;19.40;99.90
23156;DHT22;11746;50.876;4.246;2022-09-09T17:21:14;19.50;99.90
23156;DHT22;11746;50.876;4.246;2022-09-09T17:23:41;19.40;99.90
23156;DHT22;11746;50.876;4.246;2022-09-09T17:26:10;19.20;99.90